Time;durP1;ratioP1;P1;durP2;ratioP2;P2;SDS_P1;SDS_P2;PMS_P1;PMS_P2;Temp;Humidity;BMP_temperature;BMP_pressure;BME280_temperature;BME280_humidity;BME280_pressure;Samples;Min_cycle;Max_cycle;Signal;HPM_P1;HPM_P2
2021/01/15 00:00:48;;;;;;;14.65;11.32;;;;;;;10.22;nan;101678.06;4966581;28;98348;-72
2021/01/15 00:03:15;;;;;;;15.55;10.45;;;;;;;10.17;nan;101677.78;4960301;28;99007;-72
2021/01/15 00:05:43;;;;;;;13.90;10.23;;;;;;;10.15;nan;101683.69;4976830;28;97158;-72
2021/01/15 00:08:10;;;;;;;14.55;11.02;;;;;;;10.10;nan;101680.78;4978221;28;97796;-72
2021/01/15 00:10:38;;;;;;;13.98;10.10;;;;;;;10.14;nan;101677.53;4978666;28;101428;-72
2021/01/15 00:13:05;;;;;;;14.10;10.30;;;;;;;10.15;nan;101682.00;4977349;28;97879;-72
2021/01/15 00:15:33;;;;;;;13.27;10.25;;;;;;;10.10;nan;101678.16;4976118;28;98068;-72
2021/01/15 00:18:04;;;;;;;15.70;11.02;;;;;;;10.11;nan;101677.34;4961318;28;96914;-73
2021/01/15 00:20:32;;;;;;;13.88;10.50;;;;;;;10.05;nan;101686.47;4977278;28;97471;-72
2021/01/15 00:22:59;;;;;;;17.20;11.65;;;;;;;10.02;nan;101684.53;4976604;28;99293;-73
2021/01/15 00:25:27;;;;;;;17.13;10.75;;;;;;;9.94;nan;101680.50;4977914;28;97848;-73
2021/01/15 00:27:55;;;;;;;15.65;10.65;;;;;;;9.89;nan;101681.84;4958784;28;97213;-72
2021/01/15 00:30:23;;;;;;;12.57;10.45;;;;;;;9.86;nan;101685.97;4977784;28;97892;-73
2021/01/15 00:32:51;;;;;;;16.88;11.90;;;;;;;9.83;nan;101686.69;4977733;28;97971;-73
2021/01/15 00:35:19;;;;;;;16.90;11.32;;;;;;;9.85;nan;101682.44;4976728;28;97226;-72
2021/01/15 00:37:47;;;;;;;15.45;11.05;;;;;;;9.86;nan;101686.91;4977233;28;96923;-72
2021/01/15 00:40:15;;;;;;;15.23;11.00;;;;;;;9.87;nan;101683.47;4958262;28;98359;-72
2021/01/15 00:42:42;;;;;;;17.08;10.75;;;;;;;9.91;nan;101682.88;4960008;28;98188;-72
2021/01/15 00:45:16;;;;;;;16.42;11.63;;;;;;;9.95;nan;101684.91;4959927;28;97152;-74
2021/01/15 00:47:44;;;;;;;20.73;11.23;;;;;;;10.01;nan;101682.72;4976448;28;97412;-70
2021/01/15 00:50:13;;;;;;;17.70;10.70;;;;;;;10.05;nan;101679.50;4959332;28;97364;-71
2021/01/15 00:52:42;;;;;;;15.50;10.07;;;;;;;10.10;nan;101683.41;4941777;28;99023;-71
2021/01/15 00:55:11;;;;;;;16.55;10.73;;;;;;;10.11;nan;101684.28;4959852;28;97210;-71
2021/01/15 00:57:39;;;;;;;17.77;10.70;;;;;;;10.10;nan;101678.16;4978121;28;97200;-71
2021/01/15 01:00:09;;;;;;;18.08;11.32;;;;;;;10.10;nan;101687.72;4958678;28;98951;-71
2021/01/15 01:02:55;;;;;;;15.27;11.18;;;;;;;10.10;nan;101683.41;4976845;28;97981;-71
2021/01/15 01:05:25;;;;;;;15.48;11.23;;;;;;;10.13;nan;101688.84;4959126;28;96887;-71
2021/01/15 01:07:54;;;;;;;15.00;10.73;;;;;;;10.14;nan;101693.28;4976181;28;97031;-71
2021/01/15 01:10:22;;;;;;;14.32;9.55;;;;;;;10.13;nan;101693.19;4977091;28;99268;-73
2021/01/15 01:13:07;;;;;;;15.45;10.98;;;;;;;10.14;nan;101702.91;4977415;28;97976;-72
2021/01/15 01:15:37;;;;;;;14.52;10.18;;;;;;;10.14;nan;101695.91;4976757;28;97351;-71
2021/01/15 01:18:05;;;;;;;15.50;11.43;;;;;;;10.15;nan;101692.50;4977511;28;97773;-72
2021/01/15 01:20:33;;;;;;;21.98;11.05;;;;;;;10.18;nan;101699.69;4976213;28;99117;-71
2021/01/15 01:23:02;;;;;;;12.73;9.88;;;;;;;10.20;nan;101700.69;4975711;28;98653;-71
2021/01/15 01:25:30;;;;;;;13.52;9.55;;;;;;;10.23;nan;101700.00;4959713;28;97277;-72
2021/01/15 01:27:57;;;;;;;16.55;10.40;;;;;;;10.27;nan;101707.28;4975990;28;97711;-71
2021/01/15 01:30:25;;;;;;;15.23;10.70;;;;;;;10.29;nan;101706.59;4976212;28;100349;-71
2021/01/15 01:32:52;;;;;;;16.27;10.20;;;;;;;10.34;nan;101702.56;4975861;28;98553;-74
2021/01/15 01:35:20;;;;;;;13.32;9.52;;;;;;;10.34;nan;101710.44;4976738;28;97912;-73
2021/01/15 01:37:48;;;;;;;15.02;10.07;;;;;;;10.35;nan;101706.06;4976825;28;98004;-72
2021/01/15 01:40:16;;;;;;;14.35;10.65;;;;;;;10.31;nan;101709.31;4977465;28;98673;-72
2021/01/15 01:42:43;;;;;;;17.95;9.70;;;;;;;10.33;nan;101705.09;4975725;28;99002;-72
2021/01/15 01:45:12;;;;;;;18.08;10.48;;;;;;;10.32;nan;101719.00;4977312;28;97906;-72
2021/01/15 01:47:40;;;;;;;14.52;9.15;;;;;;;10.31;nan;101707.59;4976835;28;97591;-72
2021/01/15 01:50:09;;;;;;;14.00;10.48;;;;;;;10.25;nan;101716.75;4976595;28;99200;-73
2021/01/15 01:52:37;;;;;;;16.80;10.23;;;;;;;10.23;nan;101727.16;4975274;28;99183;-71
2021/01/15 01:55:06;;;;;;;14.18;10.77;;;;;;;10.18;nan;101718.97;4976345;28;97991;-73
2021/01/15 01:57:34;;;;;;;11.95;10.15;;;;;;;10.19;nan;101720.78;4976747;28;97742;-72
2021/01/15 02:00:03;;;;;;;15.55;10.88;;;;;;;10.22;nan;101730.59;4976281;28;97888;-72
2021/01/15 02:02:38;;;;;;;15.15;10.00;;;;;;;10.25;nan;101724.66;4977110;28;97883;-72
2021/01/15 02:05:07;;;;;;;15.57;9.25;;;;;;;10.26;nan;101727.38;4978517;28;97178;-72
2021/01/15 02:07:53;;;;;;;15.15;10.20;;;;;;;10.28;nan;101725.75;4980182;28;97910;-73
2021/01/15 02:10:28;;;;;;;13.85;10.25;;;;;;;10.31;nan;101727.72;4979032;28;99213;-73
2021/01/15 02:13:03;;;;;;;13.05;9.68;;;;;;;10.34;nan;101728.81;4981251;28;99156;-73
2021/01/15 02:15:37;;;;;;;13.45;10.15;;;;;;;10.39;nan;101730.03;4979958;28;97926;-73
2021/01/15 02:18:09;;;;;;;17.27;10.82;;;;;;;10.41;nan;101731.06;4978521;28;97439;-72
2021/01/15 02:21:15;;;;;;;15.00;9.48;;;;;;;10.42;nan;101735.50;4978951;28;97892;-72
2021/01/15 02:23:44;;;;;;;15.45;9.88;;;;;;;10.44;nan;101733.88;4979855;28;99690;-72
2021/01/15 02:26:35;;;;;;;16.10;9.43;;;;;;;10.45;nan;101729.56;4980228;28;97503;-72
2021/01/15 02:29:21;;;;;;;13.65;9.68;;;;;;;10.49;nan;101742.09;4945776;28;97407;-72
2021/01/15 02:32:36;;;;;;;14.05;9.88;;;;;;;10.50;nan;101739.56;4980488;28;97938;-72
2021/01/15 02:35:14;;;;;;;15.45;9.25;;;;;;;10.52;nan;101737.03;4980298;28;97789;-72
2021/01/15 02:37:51;;;;;;;12.27;9.63;;;;;;;10.53;nan;101749.41;4981324;28;97829;-72
2021/01/15 02:40:23;;;;;;;13.55;9.63;;;;;;;10.55;nan;101747.75;4981189;28;97546;-72
2021/01/15 02:42:51;;;;;;;14.30;9.70;;;;;;;10.57;nan;101738.25;4962474;28;100854;-73
2021/01/15 02:45:20;;;;;;;12.82;8.90;;;;;;;10.58;nan;101755.88;4978821;28;97730;-73
2021/01/15 02:47:49;;;;;;;14.02;8.88;;;;;;;10.61;nan;101745.56;4983247;28;97063;-73
2021/01/15 02:50:20;;;;;;;10.90;9.35;;;;;;;10.63;nan;101755.38;4965602;28;96965;-73
2021/01/15 02:52:48;;;;;;;15.27;9.63;;;;;;;10.65;nan;101755.47;4979886;28;98096;-72
2021/01/15 02:55:16;;;;;;;16.88;9.35;;;;;;;10.65;nan;101755.47;4979456;28;98094;-72
2021/01/15 02:57:44;;;;;;;13.05;8.65;;;;;;;10.68;nan;101756.59;4981239;28;97346;-71
2021/01/15 03:00:14;;;;;;;15.23;9.82;;;;;;;10.71;nan;101755.91;4988188;28;96994;-72
2021/01/15 03:02:56;;;;;;;16.77;9.40;;;;;;;10.71;nan;101759.41;4982342;28;98548;-72
2021/01/15 03:05:29;;;;;;;16.15;8.70;;;;;;;10.71;nan;101756.78;4978454;28;98139;-72
2021/01/15 03:08:18;;;;;;;14.32;9.32;;;;;;;10.73;nan;101763.06;4978571;28;97673;-72
2021/01/15 03:10:47;;;;;;;14.57;9.18;;;;;;;10.75;nan;101757.91;4959637;28;97960;-72
2021/01/15 03:13:15;;;;;;;12.73;9.27;;;;;;;10.76;nan;101765.00;4960729;28;98142;-73
2021/01/15 03:15:42;;;;;;;12.88;9.30;;;;;;;10.75;nan;101757.91;4976621;28;97862;-71
2021/01/15 03:18:10;;;;;;;15.57;8.77;;;;;;;10.75;nan;101763.16;4978000;28;97213;-72
2021/01/15 03:20:59;;;;;;;13.52;8.40;;;;;;;10.75;nan;101763.16;4978961;28;97246;-71
2021/01/15 03:23:29;;;;;;;14.00;9.02;;;;;;;10.73;nan;101765.69;4977109;28;98203;-73
2021/01/15 03:25:57;;;;;;;11.82;9.30;;;;;;;10.74;nan;101762.28;4978607;28;97935;-71
2021/01/15 03:28:25;;;;;;;12.95;8.60;;;;;;;10.73;nan;101759.53;4976926;28;97354;-71
2021/01/15 03:30:53;;;;;;;14.35;9.27;;;;;;;10.74;nan;101766.59;4978436;28;97080;-72
2021/01/15 03:33:20;;;;;;;11.60;9.02;;;;;;;10.73;nan;101780.56;4977204;28;98013;-71
2021/01/15 03:35:48;;;;;;;11.23;8.55;;;;;;;10.72;nan;101769.13;4978123;28;98780;-73
2021/01/15 03:38:16;;;;;;;10.57;8.40;;;;;;;10.71;nan;101769.03;4961300;28;97753;-72
2021/01/15 03:40:46;;;;;;;14.30;8.68;;;;;;;10.70;nan;101770.75;4978183;28;98052;-73
2021/01/15 03:43:15;;;;;;;12.73;9.02;;;;;;;10.70;nan;101775.09;4977560;28;98052;-72
2021/01/15 03:45:44;;;;;;;10.57;8.23;;;;;;;10.66;nan;101770.41;4977460;28;100186;-72
2021/01/15 03:48:12;;;;;;;10.90;8.35;;;;;;;10.65;nan;101777.41;4976889;28;97971;-71
2021/01/15 03:50:40;;;;;;;12.60;8.90;;;;;;;10.61;nan;101770.13;4977668;28;97557;-72
2021/01/15 03:53:08;;;;;;;11.48;8.27;;;;;;;10.61;nan;101774.47;4977249;28;98553;-73
2021/01/15 03:55:37;;;;;;;11.38;8.20;;;;;;;10.61;nan;101767.50;4977891;28;99082;-72
2021/01/15 03:58:04;;;;;;;11.75;8.07;;;;;;;10.63;nan;101773.75;4978614;28;97710;-71
2021/01/15 04:00:32;;;;;;;15.13;9.73;;;;;;;10.60;nan;101765.66;4977573;28;97406;-72
2021/01/15 04:03:04;;;;;;;40.60;19.63;;;;;;;10.57;nan;101762.81;4976696;28;97961;-73
2021/01/15 04:05:33;;;;;;;13.85;9.77;;;;;;;10.56;nan;101770.59;4976237;28;99098;-73
2021/01/15 04:08:00;;;;;;;12.10;8.25;;;;;;;10.50;nan;101768.47;4978147;28;97781;-73
2021/01/15 04:10:29;;;;;;;9.32;7.20;;;;;;;10.51;nan;101769.38;4977752;28;97155;-73
2021/01/15 04:12:57;;;;;;;10.02;8.18;;;;;;;10.52;nan;101776.44;4978362;28;99575;-73
2021/01/15 04:15:25;;;;;;;10.77;8.23;;;;;;;10.53;nan;101778.28;4977655;28;99082;-73
2021/01/15 04:17:52;;;;;;;30.35;15.02;;;;;;;10.53;nan;101775.66;4977012;28;97251;-73
2021/01/15 04:20:20;;;;;;;20.17;11.68;;;;;;;10.50;nan;101776.34;4977107;28;96859;-73
2021/01/15 04:22:48;;;;;;;11.27;8.73;;;;;;;10.53;nan;101780.91;4977570;28;97849;-73
2021/01/15 04:25:16;;;;;;;9.95;7.78;;;;;;;10.53;nan;101773.91;4977648;28;97936;-73
2021/01/15 04:27:44;;;;;;;11.18;8.13;;;;;;;10.47;nan;101783.09;4974669;28;97183;-73
2021/01/15 04:30:15;;;;;;;15.13;8.43;;;;;;;10.51;nan;101787.78;4977213;28;97461;-73
2021/01/15 04:32:46;;;;;;;11.85;8.90;;;;;;;10.49;nan;101777.13;4982183;28;98147;-72
2021/01/15 04:35:15;;;;;;;46.60;22.40;;;;;;;10.48;nan;101790.16;4960356;28;97852;-73
2021/01/15 04:37:43;;;;;;;14.60;10.43;;;;;;;10.47;nan;101785.75;4975792;28;97316;-72
2021/01/15 04:40:13;;;;;;;11.18;7.95;;;;;;;10.47;nan;101797.16;4960394;28;97743;-73
2021/01/15 04:42:42;;;;;;;11.88;8.25;;;;;;;10.46;nan;101790.06;4977907;28;98987;-72
2021/01/15 04:45:13;;;;;;;11.20;8.35;;;;;;;10.45;nan;101789.97;4960509;28;97878;-71
2021/01/15 04:47:42;;;;;;;25.08;13.13;;;;;;;10.43;nan;101795.13;4976794;28;98218;-72
2021/01/15 04:50:15;;;;;;;13.45;9.00;;;;;;;10.43;nan;101791.56;4978146;28;97694;-72
2021/01/15 04:52:48;;;;;;;12.20;8.35;;;;;;;10.43;nan;101796.81;4977461;28;97906;-72
2021/01/15 04:55:18;;;;;;;13.32;9.13;;;;;;;10.43;nan;101796.81;4976589;28;97933;-71
2021/01/15 04:57:49;;;;;;;9.95;7.70;;;;;;;10.39;nan;101792.16;4977009;28;98146;-72
2021/01/15 05:00:20;;;;;;;13.48;8.50;;;;;;;10.37;nan;101793.75;4977612;28;98008;-71
2021/01/15 05:02:49;;;;;;;11.20;8.32;;;;;;;10.38;nan;101798.22;4975266;28;99353;-72
2021/01/15 05:05:24;;;;;;;10.32;8.48;;;;;;;10.38;nan;101800.84;4936463;28;100233;-72
2021/01/15 05:08:10;;;;;;;11.95;8.30;;;;;;;10.36;nan;101790.25;4976007;28;97357;-72
2021/01/15 05:10:40;;;;;;;22.98;15.25;;;;;;;10.33;nan;101797.91;4975875;28;98861;-70
2021/01/15 05:13:11;;;;;;;17.50;10.57;;;;;;;10.34;nan;101804.06;4977046;28;98933;-73
2021/01/15 05:15:42;;;;;;;14.50;10.10;;;;;;;10.33;nan;101810.13;4978004;28;97483;-73
2021/01/15 05:18:11;;;;;;;13.50;8.98;;;;;;;10.36;nan;101812.97;4977611;28;97185;-73
2021/01/15 05:20:39;;;;;;;14.90;10.05;;;;;;;10.34;nan;101814.56;4973035;28;98169;-73
2021/01/15 05:23:08;;;;;;;14.15;9.30;;;;;;;10.33;nan;101802.25;4975788;28;98088;-73
2021/01/15 05:25:41;;;;;;;13.25;9.25;;;;;;;10.32;nan;101819.72;4977423;28;97811;-74
2021/01/15 05:28:09;;;;;;;15.10;9.90;;;;;;;10.30;nan;101813.44;4975836;28;97492;-73
2021/01/15 05:30:40;;;;;;;25.27;14.77;;;;;;;10.28;nan;101817.69;4975110;28;96991;-74
2021/01/15 05:33:14;;;;;;;13.95;10.00;;;;;;;10.27;nan;101820.19;4975449;28;99075;-73
2021/01/15 05:35:46;;;;;;;13.98;9.68;;;;;;;10.26;nan;101820.97;4976283;28;97560;-74
2021/01/15 05:38:15;;;;;;;30.10;16.88;;;;;;;10.25;nan;101827.06;4974998;28;97330;-73
2021/01/15 05:40:46;;;;;;;15.70;10.38;;;;;;;10.26;nan;101826.25;4958007;28;97762;-74
2021/01/15 05:43:21;;;;;;;15.00;10.55;;;;;;;10.22;nan;101824.22;4975648;28;97905;-74
2021/01/15 05:46:09;;;;;;;14.52;10.32;;;;;;;10.22;nan;101824.22;4975499;28;97983;-73
2021/01/15 05:48:41;;;;;;;14.43;10.10;;;;;;;10.22;nan;101819.84;4975406;28;97262;-73
2021/01/15 05:51:22;;;;;;;16.23;10.90;;;;;;;10.20;nan;101827.63;4976737;28;97364;-74
2021/01/15 05:53:49;;;;;;;15.65;10.32;;;;;;;10.19;nan;101831.06;4964730;28;97868;-73
2021/01/15 05:56:19;;;;;;;13.85;10.25;;;;;;;10.16;nan;101824.69;4975213;28;98152;-73
2021/01/15 05:59:06;;;;;;;14.48;9.77;;;;;;;10.16;nan;101833.47;4976324;28;97258;-74
2021/01/15 06:01:57;;;;;;;14.95;10.40;;;;;;;10.12;nan;101835.78;4977160;28;97980;-73
2021/01/15 06:04:36;;;;;;;17.85;10.77;;;;;;;10.06;nan;101833.59;4974912;28;99038;-73
2021/01/15 06:07:20;;;;;;;15.10;9.82;;;;;;;10.01;nan;101827.09;4974269;28;99066;-73
2021/01/15 06:09:49;;;;;;;16.50;10.93;;;;;;;9.95;nan;101837.16;4941836;28;97258;-73
2021/01/15 06:12:18;;;;;;;15.77;11.05;;;;;;;9.91;nan;101832.47;4957736;28;97465;-73
2021/01/15 06:14:56;;;;;;;15.43;11.18;;;;;;;9.89;nan;101843.69;4975525;28;97743;-72
2021/01/15 06:17:25;;;;;;;17.65;10.45;;;;;;;9.89;nan;101835.81;4975304;28;99295;-72
2021/01/15 06:19:57;;;;;;;15.18;11.00;;;;;;;9.89;nan;101841.94;4973702;28;97224;-73
2021/01/15 06:22:33;;;;;;;17.00;10.57;;;;;;;9.84;nan;101839.78;4957724;28;97177;-73
2021/01/15 06:25:10;;;;;;;15.10;10.15;;;;;;;9.85;nan;101850.38;4955492;28;97801;-73
2021/01/15 06:27:39;;;;;;;12.52;9.52;;;;;;;9.87;nan;101853.16;4975284;28;98713;-73
2021/01/15 06:30:09;;;;;;;15.52;10.40;;;;;;;9.87;nan;101850.53;4974163;28;97581;-74
2021/01/15 06:32:36;;;;;;;14.88;10.00;;;;;;;9.89;nan;101857.69;4957785;28;98297;-73
2021/01/15 06:35:06;;;;;;;14.63;10.20;;;;;;;9.92;nan;101860.56;4973409;28;98026;-73
2021/01/15 06:37:35;;;;;;;17.70;10.60;;;;;;;9.89;nan;101855.06;4974595;28;97784;-74
2021/01/15 06:40:08;;;;;;;16.60;10.85;;;;;;;9.85;nan;101862.63;4975616;28;97772;-73
2021/01/15 06:42:47;;;;;;;16.88;10.40;;;;;;;9.83;nan;101856.34;4959316;28;96987;-74
2021/01/15 06:45:41;;;;;;;16.73;11.32;;;;;;;9.83;nan;101869.47;4975021;28;97739;-73
2021/01/15 06:48:10;;;;;;;15.88;10.70;;;;;;;9.81;nan;101858.88;4975043;28;99063;-73
2021/01/15 06:50:39;;;;;;;16.27;11.13;;;;;;;9.40;nan;101862.75;4957955;28;97098;-74
2021/01/15 06:53:17;;;;;;;20.00;11.35;;;;;;;9.38;nan;101872.19;4974862;28;96937;-73
2021/01/15 06:55:46;;;;;;;17.10;11.23;;;;;;;9.38;nan;101866.97;4958258;28;99040;-74
2021/01/15 06:58:24;;;;;;;17.30;11.32;;;;;;;9.40;nan;101874.97;4978708;28;97908;-74
2021/01/15 07:01:15;;;;;;;15.13;10.10;;;;;;;9.40;nan;101875.84;4977386;28;98215;-74
2021/01/15 07:04:17;;;;;;;19.73;11.48;;;;;;;9.40;nan;101885.47;4979056;28;98035;-73
2021/01/15 07:06:56;;;;;;;16.60;11.35;;;;;;;9.40;nan;101890.69;4979347;28;98918;-73
2021/01/15 07:09:27;;;;;;;17.83;11.32;;;;;;;9.40;nan;101895.94;4961503;28;98299;-73
2021/01/15 07:11:56;;;;;;;21.13;11.90;;;;;;;9.40;nan;101898.56;4978914;28;98000;-72
2021/01/15 07:14:26;;;;;;;19.58;10.93;;;;;;;9.37;nan;101903.56;4981028;28;97418;-72
2021/01/15 07:16:55;;;;;;;20.52;11.55;;;;;;;9.39;nan;101908.13;4979641;28;96714;-74
2021/01/15 07:19:34;;;;;;;15.80;11.68;;;;;;;9.44;nan;101908.47;4979451;28;98922;-73
2021/01/15 07:22:10;;;;;;;15.20;11.20;;;;;;;9.43;nan;101915.44;4981405;28;97115;-73
2021/01/15 07:24:39;;;;;;;14.23;10.48;;;;;;;9.48;nan;101918.41;4980247;28;97849;-73
2021/01/15 07:27:10;;;;;;;17.02;11.07;;;;;;;9.43;nan;101923.31;4978738;28;98883;-74
2021/01/15 07:29:43;;;;;;;15.00;10.65;;;;;;;9.42;nan;101917.94;4958917;28;99103;-73
2021/01/15 07:32:31;;;;;;;17.25;10.75;;;;;;;9.43;nan;101920.69;4977146;28;97808;-73
2021/01/15 07:35:01;;;;;;;17.48;11.23;;;;;;;9.44;nan;101922.50;4977387;28;97281;-71
2021/01/15 07:37:31;;;;;;;16.30;11.25;;;;;;;9.45;nan;101934.81;4976602;28;99116;-76
2021/01/15 07:40:15;;;;;;;18.73;11.43;;;;;;;9.48;nan;101928.88;4959976;28;97743;-75
2021/01/15 07:42:51;;;;;;;15.18;10.32;;;;;;;9.48;nan;101931.50;4977046;28;97041;-75
2021/01/15 07:45:43;;;;;;;17.27;12.27;;;;;;;9.44;nan;101934.69;4969485;28;99685;-76
2021/01/15 07:48:11;;;;;;;17.95;10.23;;;;;;;9.46;nan;101933.09;4971624;28;99444;-75
2021/01/15 07:50:40;;;;;;;18.52;12.55;;;;;;;9.44;nan;101940.84;4976314;28;98570;-75
2021/01/15 07:53:15;;;;;;;13.77;11.00;;;;;;;9.39;nan;101938.69;4976899;28;98008;-74
2021/01/15 07:56:02;;;;;;;16.70;10.68;;;;;;;9.38;nan;101940.38;4974196;28;98122;-75
2021/01/15 07:58:45;;;;;;;16.02;10.77;;;;;;;9.37;nan;101943.81;4976984;28;98986;-75
2021/01/15 08:01:16;;;;;;;18.75;10.98;;;;;;;9.33;nan;101940.81;4958782;28;98023;-74
2021/01/15 08:03:45;;;;;;;15.55;11.05;;;;;;;9.27;nan;101951.75;4972873;28;97955;-75
2021/01/15 08:06:16;;;;;;;15.38;10.27;;;;;;;9.25;nan;101953.38;4976308;28;99145;-74
2021/01/15 08:08:58;;;;;;;16.88;11.25;;;;;;;9.24;nan;101962.03;4944879;28;97886;-75
2021/01/15 08:11:27;;;;;;;14.07;10.20;;;;;;;9.21;nan;101960.06;4976082;28;97734;-75
2021/01/15 08:14:10;;;;;;;18.17;10.88;;;;;;;9.25;nan;101958.63;4976056;28;97623;-76
2021/01/15 08:16:38;;;;;;;14.77;9.50;;;;;;;9.18;nan;101966.78;4959693;28;96912;-71
2021/01/15 08:19:08;;;;;;;15.68;10.90;;;;;;;9.16;nan;101969.28;4973657;28;98453;-75
2021/01/15 08:21:37;;;;;;;15.57;10.68;;;;;;;9.17;nan;101972.84;4977397;28;96906;-75
2021/01/15 08:24:06;;;;;;;17.35;11.18;;;;;;;9.13;nan;101968.16;4978464;28;97695;-75
2021/01/15 08:26:50;;;;;;;20.00;10.52;;;;;;;9.09;nan;101964.38;4974907;28;96850;-73
2021/01/15 08:29:19;;;;;;;18.38;11.13;;;;;;;9.12;nan;101972.47;4956461;28;97763;-74
2021/01/15 08:31:47;;;;;;;16.73;10.45;;;;;;;9.06;nan;101966.78;4974762;28;98143;-74
2021/01/15 08:34:16;;;;;;;14.88;10.15;;;;;;;9.06;nan;101966.78;4976192;28;97209;-72
2021/01/15 08:36:45;;;;;;;11.70;9.93;;;;;;;9.07;nan;101968.56;4973783;28;97920;-73
2021/01/15 08:39:14;;;;;;;17.23;11.07;;;;;;;9.06;nan;101972.00;4958266;28;99520;-74
2021/01/15 08:41:41;;;;;;;18.65;10.38;;;;;;;9.04;nan;101968.34;4974492;28;97663;-73
2021/01/15 08:44:14;;;;;;;16.55;11.18;;;;;;;9.01;nan;101975.06;4975109;28;97036;-73
2021/01/15 08:46:42;;;;;;;14.45;9.55;;;;;;;8.95;nan;101979.81;4975624;28;98219;-73
2021/01/15 08:49:10;;;;;;;19.65;11.23;;;;;;;8.92;nan;101984.81;4957309;28;98971;-73
2021/01/15 08:51:39;;;;;;;15.07;10.02;;;;;;;8.92;nan;101992.69;4974943;28;99100;-71
2021/01/15 08:54:07;;;;;;;15.13;10.40;;;;;;;8.90;nan;101994.28;4975197;28;97780;-73
2021/01/15 08:56:38;;;;;;;17.02;11.10;;;;;;;8.85;nan;101993.00;4971496;28;97176;-75
2021/01/15 08:59:08;;;;;;;14.70;10.50;;;;;;;8.83;nan;101991.97;4973437;28;97894;-73
2021/01/15 09:01:37;;;;;;;14.25;10.27;;;;;;;8.86;nan;101997.44;4975686;28;98046;-73
2021/01/15 09:04:06;;;;;;;15.43;10.27;;;;;;;8.85;nan;101993.00;4942373;28;97688;-72
2021/01/15 09:06:34;;;;;;;15.23;10.35;;;;;;;8.86;nan;101992.19;4973977;28;97151;-72
2021/01/15 09:09:04;;;;;;;12.55;9.30;;;;;;;8.88;nan;101988.91;4975465;28;97793;-72
2021/01/15 09:11:34;;;;;;;13.55;9.73;;;;;;;8.87;nan;101994.00;4974992;28;100370;-71
2021/01/15 09:14:03;;;;;;;17.27;9.98;;;;;;;8.85;nan;101995.63;4976409;28;97797;-72
2021/01/15 09:16:31;;;;;;;14.10;10.00;;;;;;;8.87;nan;101992.31;4974138;28;97526;-72
2021/01/15 09:19:05;;;;;;;13.77;9.50;;;;;;;8.87;nan;102000.16;4974729;28;98662;-72
2021/01/15 09:21:54;;;;;;;12.48;9.35;;;;;;;8.87;nan;102010.66;4973355;28;99622;-72
2021/01/15 09:24:23;;;;;;;16.25;10.32;;;;;;;8.88;nan;102011.56;4972400;28;98038;-72
2021/01/15 09:26:55;;;;;;;14.82;9.15;;;;;;;8.89;nan;102005.53;4950861;28;98034;-72
2021/01/15 09:29:25;;;;;;;15.75;10.43;;;;;;;8.93;nan;102008.53;4971787;28;98038;-72
2021/01/15 09:31:52;;;;;;;15.65;10.10;;;;;;;8.93;nan;102008.53;4975514;28;97696;-73
2021/01/15 09:34:21;;;;;;;14.70;10.02;;;;;;;8.94;nan;102012.06;4974043;28;96910;-73
2021/01/15 09:36:50;;;;;;;20.00;11.85;;;;;;;8.97;nan;102009.69;4958459;28;96881;-75
2021/01/15 09:39:21;;;;;;;15.65;9.98;;;;;;;8.95;nan;102014.81;4976383;28;97882;-74
2021/01/15 09:41:50;;;;;;;15.48;10.93;;;;;;;8.94;nan;102020.81;4973886;28;99538;-74
2021/01/15 09:44:19;;;;;;;15.15;9.95;;;;;;;8.89;nan;102018.63;4957086;28;97892;-73
2021/01/15 09:46:48;;;;;;;13.43;9.63;;;;;;;8.81;nan;102022.38;4971163;28;97145;-72
2021/01/15 09:49:20;;;;;;;15.65;9.95;;;;;;;8.72;nan;102022.53;4973778;28;98503;-72
2021/01/15 09:51:49;;;;;;;15.30;11.02;;;;;;;8.73;nan;102024.38;4955663;28;99166;-72
2021/01/15 09:54:18;;;;;;;12.82;9.95;;;;;;;8.66;nan;102029.91;4975609;28;97801;-74
2021/01/15 09:56:47;;;;;;;16.27;9.88;;;;;;;8.67;nan;102030.81;4974158;28;97608;-73
2021/01/15 09:59:16;;;;;;;17.45;11.18;;;;;;;8.70;nan;102031.06;4968398;28;98066;-72
2021/01/15 10:01:45;;;;;;;11.07;9.07;;;;;;;8.70;nan;102034.63;4975231;28;98600;-73
2021/01/15 10:04:14;;;;;;;12.43;9.23;;;;;;;8.71;nan;102028.56;4943322;28;97290;-72
2021/01/15 10:06:45;;;;;;;14.60;10.63;;;;;;;8.70;nan;102032.00;4971250;28;97167;-70
2021/01/15 10:09:14;;;;;;;13.90;10.00;;;;;;;8.61;nan;102036.47;4969946;28;97934;-72
2021/01/15 10:11:43;;;;;;;15.45;10.02;;;;;;;8.53;nan;102036.63;4973214;28;99454;-72
2021/01/15 10:14:13;;;;;;;15.32;9.38;;;;;;;8.54;nan;102033.25;4975561;28;97706;-72
2021/01/15 10:16:43;;;;;;;17.40;10.77;;;;;;;8.54;nan;102033.25;4975218;28;97592;-72
2021/01/15 10:19:32;;;;;;;15.90;9.88;;;;;;;8.54;nan;102028.00;4960541;28;98155;-72
2021/01/15 10:22:00;;;;;;;15.30;10.55;;;;;;;8.54;nan;102026.28;4976226;28;98959;-72
2021/01/15 10:24:28;;;;;;;14.18;10.73;;;;;;;8.58;nan;102028.38;4975936;28;97221;-72
2021/01/15 10:26:56;;;;;;;13.75;10.35;;;;;;;8.61;nan;102025.97;4977160;28;98062;-73
2021/01/15 10:29:23;;;;;;;15.15;10.05;;;;;;;8.60;nan;102028.47;4978716;28;100377;-72
2021/01/15 10:31:54;;;;;;;15.55;10.57;;;;;;;8.59;nan;102024.06;4978405;28;98791;-72
2021/01/15 10:34:23;;;;;;;14.10;9.40;;;;;;;8.57;nan;102017.78;4979980;28;96827;-73
2021/01/15 10:36:52;;;;;;;13.35;9.90;;;;;;;8.59;nan;102016.19;4977564;28;97741;-72
2021/01/15 10:39:20;;;;;;;12.85;9.35;;;;;;;8.65;nan;102019.31;4976105;28;97809;-72
2021/01/15 10:41:51;;;;;;;14.10;9.98;;;;;;;8.68;nan;102022.16;4979041;28;99081;-72
2021/01/15 10:44:20;;;;;;;17.27;9.88;;;;;;;8.63;nan;102018.28;4976536;28;97408;-72
2021/01/15 10:46:52;;;;;;;13.82;9.43;;;;;;;8.68;nan;102017.84;4977650;28;97421;-74
2021/01/15 10:49:22;;;;;;;13.07;9.48;;;;;;;8.67;nan;102023.88;4976529;28;97917;-73
2021/01/15 10:51:52;;;;;;;16.08;10.68;;;;;;;8.73;nan;102028.69;4976079;28;97786;-70
2021/01/15 10:54:19;;;;;;;15.20;9.90;;;;;;;8.69;nan;102029.22;4977294;28;97925;-73
2021/01/15 10:56:48;;;;;;;13.27;9.43;;;;;;;8.66;nan;102029.00;4977282;28;98320;-73
2021/01/15 10:59:16;;;;;;;12.02;9.55;;;;;;;8.64;nan;102027.94;4978929;28;99512;-70
2021/01/15 11:01:45;;;;;;;14.18;10.07;;;;;;;8.68;nan;102024.78;4970763;28;99186;-72
2021/01/15 11:04:13;;;;;;;13.93;9.18;;;;;;;8.96;nan;102026.19;4978356;28;97195;-72
2021/01/15 11:06:42;;;;;;;13.27;9.48;;;;;;;9.08;nan;102032.41;4978045;28;97389;-73
2021/01/15 11:09:12;;;;;;;12.10;8.93;;;;;;;9.06;nan;102026.13;4976773;28;99076;-73
2021/01/15 11:11:56;;;;;;;14.38;8.93;;;;;;;9.05;nan;102029.56;4974702;28;99025;-75
2021/01/15 11:14:24;;;;;;;15.65;10.23;;;;;;;9.05;nan;102032.19;4964457;28;96897;-74
2021/01/15 11:16:53;;;;;;;10.27;8.65;;;;;;;8.72;nan;102027.75;4964722;28;97545;-74
2021/01/15 11:19:21;;;;;;;14.65;10.30;;;;;;;8.73;nan;102026.06;4976745;28;98923;-73
2021/01/15 11:21:50;;;;;;;15.82;9.35;;;;;;;8.69;nan;102029.22;4987026;28;99964;-74
2021/01/15 11:24:19;;;;;;;12.23;9.25;;;;;;;8.71;nan;102028.56;4982069;28;97372;-74
2021/01/15 11:26:46;;;;;;;11.75;10.25;;;;;;;8.73;nan;102029.59;4977660;28;97300;-73
2021/01/15 11:29:14;;;;;;;12.63;9.20;;;;;;;8.75;nan;102033.28;4976782;28;98956;-74
2021/01/15 11:31:43;;;;;;;11.70;9.65;;;;;;;8.73;nan;102026.06;4980600;28;99336;-73
2021/01/15 11:34:13;;;;;;;13.57;10.52;;;;;;;8.73;nan;102027.00;4977836;28;97714;-74
2021/01/15 11:37:00;;;;;;;13.88;10.00;;;;;;;8.72;nan;102022.53;4962499;28;97265;-73
2021/01/15 11:39:47;;;;;;;12.55;9.68;;;;;;;8.77;nan;102031.69;4958631;28;99138;-73
2021/01/15 11:42:15;;;;;;;9.80;8.63;;;;;;;8.67;nan;102020.31;4976584;28;98284;-74
2021/01/15 11:44:43;;;;;;;13.45;9.30;;;;;;;8.66;nan;102029.00;4966055;28;98432;-72
2021/01/15 11:47:10;;;;;;;13.13;9.13;;;;;;;8.67;nan;102025.56;4945608;28;98048;-72
2021/01/15 11:49:38;;;;;;;16.48;10.20;;;;;;;8.69;nan;102029.22;4966339;28;98752;-74
2021/01/15 11:52:07;;;;;;;13.35;9.60;;;;;;;8.70;nan;102025.84;4965089;28;99591;-74